Time;durP1;ratioP1;P1;durP2;ratioP2;P2;SDS_P1;SDS_P2;PMS_P1;PMS_P2;Temp;Humidity;BMP_temperature;BMP_pressure;BME280_temperature;BME280_humidity;BME280_pressure;Samples;Min_cycle;Max_cycle;Signal;HPM_P1;HPM_P2
2021/06/18 00:01:15;;;;;;;10.13;9.20;;;25.00;99.90;;;;;;5035118;28;20212;-64
2021/06/18 00:03:40;;;;;;;9.00;8.40;;;25.00;99.90;;;;;;5009905;28;20242;-66
2021/06/18 00:06:06;;;;;;;10.00;9.40;;;24.90;99.90;;;;;;5012979;28;20623;-64
2021/06/18 00:08:32;;;;;;;10.00;9.20;;;24.90;99.90;;;;;;4993510;28;20216;-64
2021/06/18 00:10:57;;;;;;;9.40;8.60;;;24.90;99.90;;;;;;5018933;28;20249;-65
2021/06/18 00:13:23;;;;;;;9.70;8.90;;;24.80;99.90;;;;;;5012882;28;20657;-64
2021/06/18 00:15:49;;;;;;;8.37;7.77;;;24.80;99.90;;;;;;5016216;28;20197;-63
2021/06/18 00:18:14;;;;;;;9.20;8.60;;;24.70;99.90;;;;;;5018699;28;20203;-64
2021/06/18 00:20:40;;;;;;;10.23;9.33;;;24.60;99.90;;;;;;5017891;28;20343;-64
2021/06/18 00:23:05;;;;;;;9.23;8.63;;;24.60;99.90;;;;;;5006928;28;21460;-64
2021/06/18 00:25:31;;;;;;;9.70;9.03;;;24.60;99.90;;;;;;5007270;28;20188;-64
2021/06/18 00:27:57;;;;;;;9.63;9.03;;;24.50;99.90;;;;;;5019970;28;20232;-65
2021/06/18 00:30:24;;;;;;;10.23;9.33;;;24.60;99.90;;;;;;5002913;28;20220;-64
2021/06/18 00:32:50;;;;;;;10.60;9.80;;;24.40;99.90;;;;;;5029851;28;20199;-63
2021/06/18 00:35:15;;;;;;;9.70;8.90;;;24.40;99.90;;;;;;5023958;28;20602;-65
2021/06/18 00:37:43;;;;;;;10.07;9.13;;;24.30;99.90;;;;;;5023232;28;20196;-65
2021/06/18 00:40:09;;;;;;;9.77;9.07;;;24.30;99.90;;;;;;5021251;28;20815;-64
2021/06/18 00:42:37;;;;;;;10.57;9.77;;;24.20;99.90;;;;;;5014261;28;20629;-64
2021/06/18 00:45:04;;;;;;;9.60;8.90;;;24.20;99.90;;;;;;5020085;28;21740;-65
2021/06/18 00:47:30;;;;;;;9.73;9.07;;;24.20;99.90;;;;;;5002703;28;20995;-64
2021/06/18 00:49:56;;;;;;;10.37;9.50;;;24.10;99.90;;;;;;5024665;28;20676;-65
2021/06/18 00:52:22;;;;;;;11.53;10.50;;;24.10;99.90;;;;;;5023617;28;22166;-64
2021/06/18 00:54:50;;;;;;;10.20;9.40;;;24.00;99.90;;;;;;5017291;28;20231;-65
2021/06/18 00:57:17;;;;;;;10.43;9.73;;;24.00;99.90;;;;;;5031837;28;20718;-63
2021/06/18 00:59:42;;;;;;;10.30;9.50;;;24.00;99.90;;;;;;5033856;28;20601;-65
2021/06/18 01:02:08;;;;;;;10.57;9.77;;;23.90;99.90;;;;;;5020444;28;20849;-63
2021/06/18 01:04:36;;;;;;;10.77;10.07;;;23.90;99.90;;;;;;5025316;28;20515;-63
2021/06/18 01:07:06;;;;;;;10.60;9.90;;;23.90;99.90;;;;;;5031279;28;20558;-65
2021/06/18 01:09:57;;;;;;;10.73;9.90;;;23.80;99.90;;;;;;5030769;28;20678;-64
2021/06/18 01:12:26;;;;;;;10.33;9.43;;;23.80;99.90;;;;;;5006320;28;20717;-64
2021/06/18 01:15:05;;;;;;;10.37;9.67;;;23.70;99.90;;;;;;5029794;28;20740;-63
2021/06/18 01:17:49;;;;;;;11.20;10.20;;;23.70;99.90;;;;;;5023726;28;20934;-64
2021/06/18 01:20:38;;;;;;;10.90;10.00;;;23.60;99.90;;;;;;5024952;28;20655;-64
2021/06/18 01:23:35;;;;;;;11.47;10.17;;;23.60;99.90;;;;;;5033218;28;20612;-65
2021/06/18 01:26:26;;;;;;;11.53;10.70;;;23.60;99.90;;;;;;5016851;28;21123;-63
2021/06/18 01:28:57;;;;;;;11.57;10.77;;;23.50;99.90;;;;;;5025465;28;21029;-64
2021/06/18 01:31:26;;;;;;;10.97;10.17;;;23.40;99.90;;;;;;5024030;28;20655;-64
2021/06/18 01:34:02;;;;;;;11.43;10.53;;;23.30;99.90;;;;;;5030656;28;20647;-64
2021/06/18 01:36:30;;;;;;;11.10;10.30;;;23.30;99.90;;;;;;5027992;28;20662;-65
2021/06/18 01:38:58;;;;;;;11.70;10.90;;;23.30;99.90;;;;;;5027742;28;20618;-65
2021/06/18 01:41:30;;;;;;;10.50;9.80;;;23.30;99.90;;;;;;5030597;28;20651;-65
2021/06/18 01:43:58;;;;;;;11.50;10.70;;;23.30;99.90;;;;;;5036545;28;20754;-64
2021/06/18 01:46:29;;;;;;;11.70;10.83;;;23.30;99.90;;;;;;5046979;28;20618;-65
2021/06/18 01:49:02;;;;;;;10.87;10.17;;;23.20;99.90;;;;;;5048651;28;20653;-64
2021/06/18 01:51:29;;;;;;;12.30;11.30;;;23.20;99.90;;;;;;5030693;28;20701;-64
2021/06/18 01:53:57;;;;;;;11.37;10.57;;;23.20;99.90;;;;;;5031788;28;20638;-64
2021/06/18 01:56:24;;;;;;;11.13;10.33;;;23.20;99.90;;;;;;4997382;28;22184;-65
2021/06/18 01:58:52;;;;;;;12.10;11.20;;;23.20;99.90;;;;;;5007589;28;20618;-64
2021/06/18 02:01:20;;;;;;;11.40;10.60;;;23.20;99.90;;;;;;5024512;28;20756;-64
2021/06/18 02:03:47;;;;;;;11.70;10.90;;;23.10;99.90;;;;;;5032386;28;20669;-64
2021/06/18 02:06:16;;;;;;;11.33;10.53;;;23.10;99.90;;;;;;5035197;28;21001;-65
2021/06/18 02:08:44;;;;;;;12.00;11.00;;;23.10;99.90;;;;;;5034864;28;20803;-64
2021/06/18 02:11:11;;;;;;;12.37;11.40;;;23.00;99.90;;;;;;5034903;28;20661;-63
2021/06/18 02:13:38;;;;;;;11.83;10.93;;;23.00;99.90;;;;;;5039260;28;21202;-64
2021/06/18 02:16:05;;;;;;;12.30;11.50;;;22.90;99.90;;;;;;5029297;28;22334;-65
2021/06/18 02:18:32;;;;;;;12.20;11.20;;;22.90;99.90;;;;;;5046650;28;20999;-64
2021/06/18 02:21:00;;;;;;;11.80;11.10;;;22.90;99.90;;;;;;5044188;28;20650;-64
2021/06/18 02:23:33;;;;;;;12.90;11.97;;;22.90;99.90;;;;;;5037721;28;20659;-65
2021/06/18 02:26:02;;;;;;;13.00;12.10;;;22.90;99.90;;;;;;5027005;28;20614;-64
2021/06/18 02:28:28;;;;;;;11.60;10.80;;;22.80;99.90;;;;;;5032873;28;20674;-65
2021/06/18 02:30:54;;;;;;;12.57;11.67;;;22.80;99.90;;;;;;5006898;28;20671;-64
2021/06/18 02:33:21;;;;;;;12.30;11.50;;;22.70;99.90;;;;;;5030681;28;20634;-64
2021/06/18 02:35:48;;;;;;;12.37;11.47;;;22.70;99.90;;;;;;5032801;28;20610;-64
2021/06/18 02:38:14;;;;;;;13.20;12.30;;;22.60;99.90;;;;;;5030017;28;20627;-65
2021/06/18 02:40:42;;;;;;;13.23;12.27;;;22.60;99.90;;;;;;5023322;28;20657;-65
2021/06/18 02:43:08;;;;;;;12.90;12.00;;;22.60;99.90;;;;;;5009070;28;22598;-64
2021/06/18 02:45:34;;;;;;;12.70;11.90;;;22.60;99.90;;;;;;5027684;28;20622;-65
2021/06/18 02:48:18;;;;;;;12.47;11.67;;;22.60;99.90;;;;;;5008963;28;20773;-65
2021/06/18 02:50:53;;;;;;;12.80;11.90;;;22.60;99.90;;;;;;5026476;28;20651;-65
2021/06/18 02:53:41;;;;;;;13.00;12.00;;;22.60;99.90;;;;;;5025139;28;20717;-64
2021/06/18 02:56:27;;;;;;;13.30;12.20;;;22.50;99.90;;;;;;5047102;28;20701;-63
2021/06/18 02:59:08;;;;;;;15.87;14.30;;;22.50;99.90;;;;;;5044594;28;20628;-64
2021/06/18 03:01:38;;;;;;;13.93;12.80;;;22.40;99.90;;;;;;5047971;28;20657;-63
2021/06/18 03:04:05;;;;;;;14.13;13.03;;;22.40;99.90;;;;;;5030346;28;20662;-64
2021/06/18 03:06:34;;;;;;;14.70;13.60;;;22.40;99.90;;;;;;5019193;28;20634;-65
2021/06/18 03:09:05;;;;;;;14.70;13.60;;;22.40;99.90;;;;;;5011601;28;20650;-65
2021/06/18 03:11:35;;;;;;;15.77;14.50;;;22.30;99.90;;;;;;5026589;28;20677;-64
2021/06/18 03:14:05;;;;;;;15.07;13.97;;;22.40;99.90;;;;;;5007638;28;20624;-65
2021/06/18 03:16:31;;;;;;;15.13;14.03;;;22.40;99.90;;;;;;5025899;28;20625;-64
2021/06/18 03:19:02;;;;;;;14.47;13.40;;;22.40;99.90;;;;;;5021042;28;21063;-65
2021/06/18 03:21:32;;;;;;;14.60;13.60;;;22.40;99.90;;;;;;5015282;28;21232;-64
2021/06/18 03:24:00;;;;;;;15.07;14.07;;;22.30;99.90;;;;;;5036928;28;21300;-64
2021/06/18 03:26:26;;;;;;;15.57;14.40;;;22.40;99.90;;;;;;5032831;28;20635;-64
2021/06/18 03:28:54;;;;;;;15.50;14.30;;;22.30;99.90;;;;;;5032991;28;20678;-64
2021/06/18 03:31:20;;;;;;;16.70;15.30;;;22.30;99.90;;;;;;5029210;28;20639;-65
2021/06/18 03:33:47;;;;;;;17.40;16.00;;;22.30;99.90;;;;;;5021171;28;20634;-64
2021/06/18 03:36:16;;;;;;;16.80;15.23;;;22.30;99.90;;;;;;5030336;28;21063;-65
2021/06/18 03:38:43;;;;;;;15.33;14.20;;;22.30;99.90;;;;;;5019652;28;21332;-63
2021/06/18 03:41:09;;;;;;;16.10;14.90;;;22.30;99.90;;;;;;5025240;28;20803;-65
2021/06/18 03:43:35;;;;;;;17.13;15.73;;;22.30;99.90;;;;;;5018157;28;20795;-63
2021/06/18 03:46:04;;;;;;;15.60;14.50;;;22.30;99.90;;;;;;5024055;28;20295;-65
2021/06/18 03:48:31;;;;;;;16.67;15.40;;;22.30;99.90;;;;;;5022522;28;20746;-65
2021/06/18 03:50:58;;;;;;;16.30;15.00;;;22.30;99.90;;;;;;5008394;28;20738;-65
2021/06/18 03:53:24;;;;;;;16.73;15.33;;;22.30;99.90;;;;;;5029545;28;20639;-65
2021/06/18 03:55:49;;;;;;;16.30;15.10;;;22.30;99.90;;;;;;5029875;28;20688;-64
2021/06/18 03:58:19;;;;;;;16.30;15.10;;;22.30;99.90;;;;;;5025131;28;20283;-64
2021/06/18 04:00:47;;;;;;;15.43;14.20;;;22.30;99.90;;;;;;5005027;28;20280;-65
2021/06/18 04:03:12;;;;;;;16.80;15.50;;;22.20;99.90;;;;;;5028165;28;20657;-65
2021/06/18 04:05:41;;;;;;;17.23;15.83;;;22.20;99.90;;;;;;5027998;28;20634;-65
2021/06/18 04:08:07;;;;;;;17.03;15.70;;;22.30;99.90;;;;;;5026218;28;20215;-65
2021/06/18 04:10:33;;;;;;;17.37;15.67;;;22.30;99.90;;;;;;5023520;28;20711;-63
2021/06/18 04:12:59;;;;;;;15.77;14.57;;;22.40;99.90;;;;;;5024514;28;21204;-65
2021/06/18 04:15:27;;;;;;;16.90;15.53;;;22.30;99.90;;;;;;5023117;28;20621;-63
2021/06/18 04:17:53;;;;;;;17.13;15.77;;;22.30;99.90;;;;;;5025077;28;21190;-64
2021/06/18 04:20:21;;;;;;;16.33;15.13;;;22.30;99.90;;;;;;5019116;28;20813;-64
2021/06/18 04:22:49;;;;;;;16.07;14.77;;;22.30;99.90;;;;;;5005849;28;20205;-64
2021/06/18 04:25:15;;;;;;;17.40;15.80;;;22.40;99.90;;;;;;5024791;28;20685;-65
2021/06/18 04:27:40;;;;;;;18.30;16.90;;;22.40;99.90;;;;;;5023900;28;20758;-64
2021/06/18 04:30:11;;;;;;;16.13;14.80;;;22.40;99.90;;;;;;5007696;28;20277;-64
2021/06/18 04:32:37;;;;;;;15.10;14.10;;;22.50;99.90;;;;;;5018275;28;20192;-65
2021/06/18 04:35:08;;;;;;;17.30;15.97;;;22.50;99.90;;;;;;5021730;28;20646;-65
2021/06/18 04:37:37;;;;;;;16.00;14.73;;;22.50;99.90;;;;;;5030099;28;20634;-65
2021/06/18 04:40:04;;;;;;;17.60;16.30;;;22.50;99.90;;;;;;5026463;28;20625;-64
2021/06/18 04:42:30;;;;;;;15.93;14.77;;;22.50;99.90;;;;;;5027747;28;20618;-63
2021/06/18 04:44:56;;;;;;;14.93;13.90;;;22.60;99.90;;;;;;5021289;28;20656;-63
2021/06/18 04:47:23;;;;;;;15.67;14.37;;;22.50;99.90;;;;;;5024609;28;20227;-65
2021/06/18 04:49:48;;;;;;;15.30;14.00;;;22.60;99.90;;;;;;5020436;28;20180;-64
2021/06/18 04:52:18;;;;;;;15.87;14.67;;;22.60;99.90;;;;;;5022592;28;20618;-70
2021/06/18 04:54:45;;;;;;;15.83;14.53;;;22.60;99.90;;;;;;5025662;28;20231;-70
2021/06/18 04:57:11;;;;;;;16.37;15.00;;;22.70;99.90;;;;;;5044292;28;20617;-70
2021/06/18 04:59:37;;;;;;;14.97;13.87;;;22.70;99.90;;;;;;5047170;28;20624;-70
2021/06/18 05:02:04;;;;;;;14.20;13.17;;;22.80;99.90;;;;;;5045982;28;20669;-70
2021/06/18 05:04:30;;;;;;;14.80;13.60;;;22.80;99.90;;;;;;5028503;28;20998;-71
2021/06/18 05:06:55;;;;;;;13.83;12.83;;;22.90;99.90;;;;;;5028938;28;20653;-71
2021/06/18 05:09:21;;;;;;;14.30;13.00;;;22.90;99.90;;;;;;5011624;28;20250;-71
2021/06/18 05:11:46;;;;;;;13.00;11.80;;;22.90;99.90;;;;;;5028724;28;20323;-70
2021/06/18 05:14:12;;;;;;;14.63;13.63;;;23.00;99.90;;;;;;5026130;28;20310;-70
2021/06/18 05:16:39;;;;;;;14.70;13.47;;;23.00;99.90;;;;;;5005514;28;20196;-70
2021/06/18 05:19:06;;;;;;;14.20;13.10;;;23.10;99.90;;;;;;5020392;28;20275;-65
2021/06/18 05:21:31;;;;;;;12.87;11.87;;;23.10;99.90;;;;;;5011163;28;20664;-65
2021/06/18 05:23:57;;;;;;;13.17;12.20;;;23.20;99.90;;;;;;5023209;28;21174;-64
2021/06/18 05:26:22;;;;;;;14.10;13.10;;;23.20;99.90;;;;;;5029226;28;20211;-65
2021/06/18 05:28:48;;;;;;;14.10;13.03;;;23.20;99.90;;;;;;5032832;28;20208;-65
2021/06/18 05:31:13;;;;;;;14.13;12.90;;;23.30;99.90;;;;;;5031662;28;20211;-65
2021/06/18 05:33:39;;;;;;;14.43;13.20;;;23.30;99.90;;;;;;5035868;28;20302;-63
2021/06/18 05:36:05;;;;;;;14.17;12.90;;;23.30;99.90;;;;;;5037168;28;20768;-65
2021/06/18 05:38:30;;;;;;;13.63;12.73;;;23.40;99.90;;;;;;5038656;28;20255;-65
2021/06/18 05:40:58;;;;;;;14.37;13.30;;;23.50;99.90;;;;;;5033302;28;22396;-64
2021/06/18 05:43:24;;;;;;;14.87;13.53;;;23.50;99.90;;;;;;5031611;28;20252;-64
2021/06/18 05:45:49;;;;;;;14.20;13.23;;;23.60;99.90;;;;;;5031292;28;20994;-65
2021/06/18 05:48:15;;;;;;;13.97;12.97;;;23.60;99.90;;;;;;5033123;28;20241;-65
2021/06/18 05:50:41;;;;;;;13.80;12.70;;;23.60;99.90;;;;;;5031709;28;20223;-65
2021/06/18 05:53:06;;;;;;;14.40;13.17;;;23.70;99.90;;;;;;5034404;28;20268;-65
2021/06/18 05:55:32;;;;;;;13.57;12.60;;;23.70;99.90;;;;;;5034150;28;20636;-65
2021/06/18 05:57:58;;;;;;;14.40;13.40;;;23.80;99.90;;;;;;5033957;28;20222;-64
2021/06/18 06:00:23;;;;;;;13.23;12.10;;;23.90;99.90;;;;;;5014216;28;20226;-65
2021/06/18 06:02:49;;;;;;;13.50;12.43;;;23.90;99.90;;;;;;5029236;28;23120;-66
2021/06/18 06:05:14;;;;;;;13.40;12.50;;;24.00;99.90;;;;;;5014082;28;20862;-65
2021/06/18 06:07:47;;;;;;;13.93;12.90;;;24.00;99.90;;;;;;5025876;28;20200;-65
2021/06/18 06:10:14;;;;;;;12.70;11.70;;;24.10;99.90;;;;;;5032089;28;20254;-65
2021/06/18 06:12:40;;;;;;;15.70;14.23;;;24.20;99.90;;;;;;5014307;28;20629;-66
2021/06/18 06:15:06;;;;;;;14.33;12.93;;;24.20;99.90;;;;;;5034122;28;20643;-65
2021/06/18 06:17:32;;;;;;;13.97;12.97;;;24.30;99.90;;;;;;5034360;28;20614;-65
2021/06/18 06:19:57;;;;;;;13.43;12.20;;;24.40;99.90;;;;;;5031873;28;20622;-65
2021/06/18 06:22:23;;;;;;;13.50;12.50;;;24.40;99.90;;;;;;5035216;28;20195;-64
2021/06/18 06:24:48;;;;;;;12.20;11.27;;;24.50;99.90;;;;;;5033672;28;20216;-65
2021/06/18 06:27:14;;;;;;;13.83;12.73;;;24.60;99.90;;;;;;5056213;28;20338;-65
2021/06/18 06:29:39;;;;;;;14.00;12.70;;;24.70;99.90;;;;;;5057141;28;20238;-65
2021/06/18 06:32:05;;;;;;;13.33;12.33;;;24.80;99.90;;;;;;5056830;28;20204;-64
2021/06/18 06:34:32;;;;;;;13.50;12.40;;;24.80;99.90;;;;;;5024283;28;21377;-66
2021/06/18 06:36:57;;;;;;;12.07;11.17;;;24.90;99.90;;;;;;5035178;28;20534;-65
2021/06/18 06:39:23;;;;;;;12.17;11.37;;;25.00;99.90;;;;;;5037439;28;20626;-65
2021/06/18 06:41:49;;;;;;;14.30;13.20;;;25.00;99.90;;;;;;5035494;28;20647;-65
2021/06/18 06:44:14;;;;;;;13.50;12.40;;;25.20;99.90;;;;;;5023433;28;20224;-65
2021/06/18 06:46:40;;;;;;;13.10;12.07;;;25.30;99.90;;;;;;5021801;28;20207;-65
2021/06/18 06:49:05;;;;;;;13.40;12.20;;;25.30;99.90;;;;;;5042119;28;20630;-65
2021/06/18 06:51:31;;;;;;;13.07;11.93;;;25.40;99.90;;;;;;5042259;28;20208;-65
2021/06/18 06:53:57;;;;;;;13.40;12.10;;;25.40;99.90;;;;;;5038187;28;20739;-65
2021/06/18 06:56:23;;;;;;;13.17;12.20;;;25.40;99.90;;;;;;5036690;28;20184;-66
2021/06/18 06:58:48;;;;;;;12.73;11.80;;;25.60;99.90;;;;;;5035470;28;20655;-65
2021/06/18 07:01:14;;;;;;;12.63;11.53;;;25.60;99.90;;;;;;5031207;28;20196;-65
2021/06/18 07:03:40;;;;;;;13.00;12.10;;;25.70;99.90;;;;;;5033670;28;20232;-64
2021/06/18 07:06:07;;;;;;;12.20;11.40;;;25.80;99.90;;;;;;5029903;28;20274;-64
2021/06/18 07:08:33;;;;;;;12.77;11.80;;;25.80;99.90;;;;;;5033948;28;20741;-65
2021/06/18 07:10:58;;;;;;;11.90;11.10;;;25.90;99.90;;;;;;5035067;28;20752;-65
2021/06/18 07:13:24;;;;;;;12.50;11.60;;;26.00;99.90;;;;;;5035922;28;20308;-65
2021/06/18 07:15:51;;;;;;;13.60;12.60;;;26.10;99.90;;;;;;5031477;28;20254;-64
2021/06/18 07:18:17;;;;;;;12.90;12.00;;;26.10;99.90;;;;;;5037297;28;20265;-65
2021/06/18 07:20:43;;;;;;;12.60;11.70;;;26.20;99.90;;;;;;5014566;28;21022;-65
2021/06/18 07:23:09;;;;;;;12.47;11.60;;;26.30;99.90;;;;;;5034806;28;20634;-65
2021/06/18 07:25:35;;;;;;;12.80;11.80;;;26.30;99.90;;;;;;5032619;28;20176;-65
2021/06/18 07:28:02;;;;;;;11.90;11.10;;;26.40;99.90;;;;;;5034290;28;20769;-65
2021/06/18 07:30:27;;;;;;;12.60;11.50;;;26.50;99.90;;;;;;5033908;28;20764;-65
2021/06/18 07:32:53;;;;;;;12.17;11.03;;;26.60;99.90;;;;;;5018671;28;20595;-65
2021/06/18 07:35:20;;;;;;;12.27;11.40;;;26.70;99.90;;;;;;5037857;28;20212;-64
2021/06/18 07:37:46;;;;;;;11.93;11.07;;;26.80;99.90;;;;;;5023956;28;20279;-65
2021/06/18 07:40:13;;;;;;;12.07;11.03;;;26.80;99.90;;;;;;5042343;28;20816;-65
2021/06/18 07:42:39;;;;;;;12.90;11.70;;;26.90;99.90;;;;;;5130941;22;20263;-64
2021/06/18 07:45:06;;;;;;;12.77;11.63;;;27.00;99.90;;;;;;5040150;28;20736;-65
2021/06/18 07:47:31;;;;;;;12.10;11.20;;;27.10;99.90;;;;;;5048791;28;20267;-65
2021/06/18 07:49:58;;;;;;;11.30;10.50;;;27.10;99.90;;;;;;5047173;28;21256;-65
2021/06/18 07:52:26;;;;;;;11.73;10.73;;;27.30;99.90;;;;;;5051701;28;20226;-64
2021/06/18 07:54:54;;;;;;;12.20;11.30;;;27.30;99.90;;;;;;5041724;28;20745;-64
2021/06/18 07:57:20;;;;;;;12.07;11.17;;;27.40;99.90;;;;;;5040800;28;20614;-65
2021/06/18 07:59:48;;;;;;;13.27;12.13;;;27.50;99.90;;;;;;5045775;28;20618;-64
2021/06/18 08:02:14;;;;;;;12.27;11.57;;;27.60;99.90;;;;;;5050202;28;20217;-64
2021/06/18 08:04:39;;;;;;;12.50;11.30;;;27.60;99.90;;;;;;5024671;28;21006;-65
2021/06/18 08:07:05;;;;;;;12.20;11.30;;;27.70;99.90;;;;;;5029094;28;20711;-66
2021/06/18 08:09:30;;;;;;;12.47;11.20;;;27.80;99.90;;;;;;5025995;28;20246;-65
2021/06/18 08:11:58;;;;;;;11.60;10.20;;;27.90;99.90;;;;;;5026246;28;20295;-65
2021/06/18 08:14:24;;;;;;;12.20;11.10;;;28.00;99.90;;;;;;5024062;28;20641;-65
2021/06/18 08:16:49;;;;;;;11.77;10.87;;;28.10;99.90;;;;;;5022624;28;20767;-65
2021/06/18 08:19:15;;;;;;;11.80;11.00;;;28.10;99.90;;;;;;5020325;28;20253;-65
2021/06/18 08:21:40;;;;;;;11.50;10.60;;;28.20;99.90;;;;;;5028419;28;20229;-65
2021/06/18 08:24:07;;;;;;;10.63;9.97;;;28.20;99.90;;;;;;5020871;28;20594;-65
2021/06/18 08:26:32;;;;;;;10.00;9.30;;;28.30;99.90;;;;;;5026375;28;20196;-65
2021/06/18 08:28:58;;;;;;;10.90;10.00;;;28.30;99.90;;;;;;5028742;28;20936;-64
2021/06/18 08:31:23;;;;;;;11.50;10.50;;;28.40;99.90;;;;;;5025000;28;20755;-65
2021/06/18 08:33:50;;;;;;;11.43;10.60;;;28.50;99.90;;;;;;5024817;28;20757;-66
2021/06/18 08:36:16;;;;;;;10.50;9.90;;;28.60;99.90;;;;;;5030011;28;20181;-65
2021/06/18 08:38:43;;;;;;;11.70;10.80;;;28.80;99.90;;;;;;5025573;28;20615;-65
2021/06/18 08:41:09;;;;;;;11.53;10.63;;;28.90;99.90;;;;;;5019646;28;20208;-65
2021/06/18 08:43:35;;;;;;;10.73;9.87;;;28.90;99.90;;;;;;5021764;28;20964;-65
2021/06/18 08:46:02;;;;;;;10.80;10.00;;;28.90;99.90;;;;;;5021024;28;20249;-64
2021/06/18 08:48:32;;;;;;;11.97;11.00;;;29.00;99.90;;;;;;5024506;28;20212;-65
2021/06/18 08:51:02;;;;;;;11.93;10.97;;;29.10;99.90;;;;;;5023553;28;20646;-65
2021/06/18 08:53:34;;;;;;;12.10;11.17;;;29.10;99.90;;;;;;5038394;28;20661;-65
2021/06/18 08:56:01;;;;;;;11.70;10.90;;;29.20;99.90;;;;;;5018299;28;20737;-66
2021/06/18 08:58:27;;;;;;;11.60;10.80;;;29.20;99.90;;;;;;5022000;28;20741;-64
2021/06/18 09:00:52;;;;;;;11.70;10.90;;;29.30;99.90;;;;;;5022301;28;20991;-65
2021/06/18 09:03:42;;;;;;;11.63;10.83;;;29.50;99.90;;;;;;5019409;28;20635;-64
2021/06/18 09:06:28;;;;;;;12.80;11.67;;;29.40;99.90;;;;;;5028903;28;20449;-65
2021/06/18 09:09:18;;;;;;;12.20;11.10;;;29.40;99.90;;;;;;5017136;28;21232;-65
2021/06/18 09:11:52;;;;;;;11.43;10.60;;;29.50;99.90;;;;;;5032323;28;20679;-64
2021/06/18 09:14:20;;;;;;;12.13;11.20;;;29.60;99.90;;;;;;5015804;28;20947;-65
2021/06/18 09:17:17;;;;;;;12.40;11.20;;;29.60;99.90;;;;;;5033760;28;20607;-65
2021/06/18 09:20:00;;;;;;;11.23;10.33;;;29.80;99.90;;;;;;5017903;28;20659;-65
2021/06/18 09:22:36;;;;;;;11.57;10.77;;;29.90;99.90;;;;;;5019595;28;20617;-65
2021/06/18 09:25:13;;;;;;;11.43;10.43;;;30.00;99.90;;;;;;5006625;28;20647;-65
2021/06/18 09:27:40;;;;;;;11.93;11.00;;;30.00;99.90;;;;;;5011638;28;20606;-65
2021/06/18 09:30:32;;;;;;;11.00;10.20;;;30.00;99.90;;;;;;5015671;28;20708;-66
2021/06/18 09:33:17;;;;;;;11.73;10.83;;;30.10;99.90;;;;;;5018435;28;20611;-65
2021/06/18 09:36:09;;;;;;;12.07;11.10;;;30.20;99.90;;;;;;5015044;28;20619;-64
2021/06/18 09:38:39;;;;;;;11.53;10.70;;;30.20;99.90;;;;;;5011558;28;20648;-65
2021/06/18 09:41:05;;;;;;;11.57;10.87;;;30.30;99.90;;;;;;5013328;28;21198;-65
2021/06/18 09:43:45;;;;;;;11.03;10.33;;;30.40;99.90;;;;;;5015508;28;20644;-65
2021/06/18 09:46:10;;;;;;;10.73;10.00;;;30.50;99.90;;;;;;5014069;28;20196;-66
2021/06/18 09:48:36;;;;;;;11.10;10.30;;;30.50;99.90;;;;;;5014951;28;20988;-64
2021/06/18 09:51:02;;;;;;;11.30;10.50;;;30.60;99.90;;;;;;5019653;28;20283;-66
2021/06/18 09:53:28;;;;;;;11.63;10.73;;;30.60;99.90;;;;;;5017864;28;20739;-65
2021/06/18 09:56:13;;;;;;;12.13;11.10;;;30.70;99.90;;;;;;5019539;28;20626;-66
2021/06/18 09:58:40;;;;;;;11.63;10.87;;;30.80;99.90;;;;;;5018391;28;20623;-65
2021/06/18 10:01:24;;;;;;;11.93;11.20;;;30.80;99.90;;;;;;5018407;28;20672;-66
2021/06/18 10:04:03;;;;;;;11.40;10.50;;;30.90;99.90;;;;;;5016387;28;20639;-65
2021/06/18 10:06:36;;;;;;;12.23;11.43;;;30.90;99.90;;;;;;5014917;28;20602;-65
2021/06/18 10:09:04;;;;;;;12.20;11.23;;;31.00;99.90;;;;;;5013218;28;20670;-67
2021/06/18 10:11:31;;;;;;;11.83;10.73;;;31.20;99.90;;;;;;5009861;28;20940;-66
2021/06/18 10:13:57;;;;;;;12.60;11.73;;;31.20;99.90;;;;;;5010941;28;20715;-65
2021/06/18 10:16:24;;;;;;;12.63;11.63;;;31.30;99.90;;;;;;5018031;28;20757;-65
2021/06/18 10:18:50;;;;;;;12.50;11.50;;;31.40;99.90;;;;;;5029406;28;20650;-64
2021/06/18 10:21:17;;;;;;;13.03;12.10;;;31.40;99.90;;;;;;5011781;28;20652;-65
2021/06/18 10:23:44;;;;;;;12.53;11.73;;;31.40;99.90;;;;;;5011725;28;20659;-66
2021/06/18 10:26:12;;;;;;;12.87;11.97;;;31.40;99.90;;;;;;5012291;28;20615;-65
2021/06/18 10:28:37;;;;;;;12.43;11.40;;;31.50;99.90;;;;;;5005590;28;20713;-64
2021/06/18 10:31:05;;;;;;;14.50;13.50;;;31.50;99.90;;;;;;5010705;28;21147;-65
2021/06/18 10:33:36;;;;;;;13.77;12.87;;;31.60;99.90;;;;;;5013929;28;20697;-67
2021/06/18 10:36:25;;;;;;;14.80;13.70;;;31.70;99.90;;;;;;5012523;28;20647;-65
2021/06/18 10:39:12;;;;;;;13.50;12.63;;;31.80;99.90;;;;;;5020649;28;21171;-66
2021/06/18 10:41:59;;;;;;;13.83;12.70;;;31.80;99.90;;;;;;5016141;28;20669;-64
2021/06/18 10:44:37;;;;;;;14.30;13.03;;;31.80;99.90;;;;;;5029025;28;20658;-65
2021/06/18 10:47:30;;;;;;;14.47;13.47;;;32.00;99.90;;;;;;5011302;28;20623;-64
2021/06/18 10:49:57;;;;;;;13.20;12.40;;;31.90;99.90;;;;;;5000337;28;20690;-66
2021/06/18 10:52:25;;;;;;;15.20;13.77;;;32.00;99.90;;;;;;5001917;28;20605;-65
2021/06/18 10:54:58;;;;;;;14.70;13.73;;;32.10;99.90;;;;;;5002332;28;20677;-66
2021/06/18 10:57:28;;;;;;;13.13;12.33;;;32.00;99.90;;;;;;5020530;28;20623;-66
2021/06/18 10:59:59;;;;;;;14.90;13.90;;;32.10;99.90;;;;;;5001875;28;20730;-65
2021/06/18 11:02:25;;;;;;;13.70;12.90;;;32.20;99.90;;;;;;5004403;28;20594;-64
2021/06/18 11:04:56;;;;;;;13.73;12.83;;;32.30;99.90;;;;;;5001798;28;20708;-64
2021/06/18 11:07:33;;;;;;;13.90;12.90;;;32.40;99.90;;;;;;5004536;28;20604;-66
2021/06/18 11:10:15;;;;;;;14.40;13.40;;;32.40;99.90;;;;;;5019015;28;20647;-66
2021/06/18 11:12:47;;;;;;;13.37;12.47;;;32.40;99.90;;;;;;5006397;28;20666;-65
2021/06/18 11:15:21;;;;;;;14.40;13.50;;;32.50;99.90;;;;;;5002832;28;20658;-66
2021/06/18 11:17:53;;;;;;;14.23;13.13;;;32.60;99.90;;;;;;5004982;28;20611;-65
2021/06/18 11:20:22;;;;;;;14.20;13.13;;;32.70;99.90;;;;;;4999727;28;20651;-64
2021/06/18 11:23:05;;;;;;;13.60;12.70;;;32.70;99.90;;;;;;5008496;28;21016;-65
2021/06/18 11:25:40;;;;;;;14.23;13.33;;;32.80;99.90;;;;;;5004847;28;20695;-65
2021/06/18 11:31:17;;;;;;;13.37;12.57;;;32.90;99.90;;;;;;5011533;28;20708;-65
2021/06/18 11:33:51;;;;;;;13.60;12.70;;;33.00;99.90;;;;;;5008542;28;20817;-63
2021/06/18 11:36:23;;;;;;;12.27;11.50;;;33.10;99.90;;;;;;5013267;28;20657;-65
2021/06/18 11:39:10;;;;;;;14.97;13.97;;;33.10;99.90;;;;;;5011160;28;20686;-64
2021/06/18 11:41:40;;;;;;;14.37;13.33;;;33.20;99.90;;;;;;5009979;28;20647;-64
2021/06/18 11:44:07;;;;;;;14.30;13.40;;;33.20;99.90;;;;;;5010438;28;20683;-64
2021/06/18 11:46:34;;;;;;;14.00;12.80;;;33.40;99.90;;;;;;5005553;28;20685;-64
2021/06/18 11:49:12;;;;;;;13.67;12.63;;;33.40;99.90;;;;;;5006852;28;20645;-65
2021/06/18 11:51:39;;;;;;;15.23;14.23;;;33.60;99.90;;;;;;5008059;28;20698;-65
2021/06/18 11:54:05;;;;;;;13.67;12.77;;;33.70;99.90;;;;;;5016285;28;20658;-65
2021/06/18 11:56:33;;;;;;;13.43;12.67;;;33.70;99.90;;;;;;5012040;28;20713;-65
2021/06/18 11:58:59;;;;;;;13.57;12.67;;;33.80;99.90;;;;;;5020685;28;20215;-64
2021/06/18 12:01:33;;;;;;;14.40;13.20;;;33.80;99.90;;;;;;5016598;28;23437;-64
2021/06/18 12:04:03;;;;;;;13.90;13.00;;;33.90;99.90;;;;;;5013781;28;20738;-65
2021/06/18 12:06:31;;;;;;;13.87;12.97;;;34.00;99.90;;;;;;5010590;28;21361;-65
2021/06/18 12:08:59;;;;;;;13.20;12.40;;;34.10;99.90;;;;;;5021010;28;20824;-64
2021/06/18 12:11:24;;;;;;;19.43;15.27;;;34.10;99.90;;;;;;5004261;28;20667;-64
2021/06/18 12:13:51;;;;;;;14.80;13.87;;;34.30;99.90;;;;;;5010818;28;20635;-64
2021/06/18 12:16:19;;;;;;;14.10;13.10;;;34.30;99.90;;;;;;5015637;28;20272;-65
2021/06/18 12:18:45;;;;;;;19.53;18.23;;;34.30;99.90;;;;;;5013424;28;20766;-65
2021/06/18 12:21:12;;;;;;;13.30;12.20;;;34.40;99.90;;;;;;5017273;28;20797;-64
2021/06/18 12:23:38;;;;;;;13.73;12.83;;;34.40;99.90;;;;;;5016503;28;20225;-64
2021/06/18 12:26:03;;;;;;;13.70;12.90;;;34.50;99.90;;;;;;5020755;28;20610;-65
2021/06/18 12:28:29;;;;;;;13.57;12.63;;;34.60;99.90;;;;;;5019555;28;20221;-65
2021/06/18 12:30:58;;;;;;;13.57;12.67;;;34.60;99.90;;;;;;5013764;28;20335;-65
2021/06/18 12:33:24;;;;;;;13.80;12.80;;;34.70;99.90;;;;;;5012832;28;20605;-65
2021/06/18 12:35:50;;;;;;;13.70;12.90;;;34.80;99.90;;;;;;5015272;28;20982;-65
2021/06/18 12:38:16;;;;;;;13.37;12.47;;;34.80;99.90;;;;;;5004554;28;20208;-65
2021/06/18 12:40:48;;;;;;;13.03;12.07;;;34.90;99.90;;;;;;4994478;28;20669;-63